createdAt,value
2023-04-04T00:01:53.800Z,101235.75
2023-04-04T00:06:59.172Z,101247.19
2023-04-04T00:12:04.937Z,101253.50
2023-04-04T00:17:09.987Z,101268.28
2023-04-04T00:22:19.548Z,101280.41
2023-04-04T00:27:24.881Z,101286.69
2023-04-04T00:32:30.022Z,101297.81
2023-04-04T00:37:35.755Z,101305.00
2023-04-04T00:42:41.140Z,101348.31
2023-04-04T00:47:46.686Z,101347.00
2023-04-04T00:52:52.731Z,101354.53
2023-04-04T00:58:00.134Z,101328.81
2023-04-04T01:03:08.947Z,101334.72
2023-04-04T01:08:14.338Z,101335.06
2023-04-04T01:13:19.768Z,101336.28
2023-04-04T01:18:26.983Z,101336.50
2023-04-04T01:23:51.937Z,101341.34
2023-04-04T01:29:00.051Z,101355.94
2023-04-04T01:34:40.064Z,101346.63
2023-04-04T01:39:58.537Z,101370.66
2023-04-04T01:45:04.184Z,101374.47
2023-04-04T01:50:13.634Z,101376.63
2023-04-04T01:55:19.123Z,101373.72
2023-04-04T02:00:24.323Z,101359.00
2023-04-04T02:05:29.794Z,101376.34
2023-04-04T02:10:35.021Z,101376.38
2023-04-04T02:15:40.433Z,101391.34
2023-04-04T02:20:45.901Z,101395.44
2023-04-04T02:25:52.918Z,101389.66
2023-04-04T02:30:57.964Z,101386.19
2023-04-04T02:36:03.046Z,101384.41
2023-04-04T02:41:08.519Z,101365.06
2023-04-04T02:46:21.660Z,101360.47
2023-04-04T02:51:34.820Z,101347.81
2023-04-04T02:56:39.929Z,101350.28
2023-04-04T03:01:45.128Z,101333.88
2023-04-04T03:06:50.642Z,101337.47
2023-04-04T03:11:56.129Z,101346.97
2023-04-04T03:17:01.496Z,101323.53
2023-04-04T03:22:07.774Z,101324.38
2023-04-04T03:27:12.984Z,101315.72
2023-04-04T03:32:19.551Z,101315.44
2023-04-04T03:37:24.863Z,101313.22
2023-04-04T03:42:34.485Z,101293.00
2023-04-04T03:47:44.024Z,101284.78
2023-04-04T03:52:49.489Z,101277.81
2023-04-04T03:57:56.321Z,101279.19
2023-04-04T04:03:01.889Z,101272.47
2023-04-04T04:08:08.150Z,101284.34
2023-04-04T04:13:15.750Z,101268.19
2023-04-04T04:18:21.525Z,101287.59
2023-04-04T04:23:29.184Z,101252.75
2023-04-04T04:28:35.128Z,101270.47
2023-04-04T04:33:47.550Z,101236.34
2023-04-04T04:38:55.841Z,101225.38
2023-04-04T04:44:04.699Z,101253.38
2023-04-04T04:49:10.907Z,101242.09
2023-04-04T04:54:17.347Z,101212.53
2023-04-04T04:59:24.124Z,101195.72
2023-04-04T05:04:29.076Z,101196.00
2023-04-04T05:09:43.520Z,101212.16
2023-04-04T05:14:52.697Z,101187.72
2023-04-04T05:19:59.137Z,101181.16
2023-04-04T05:25:07.412Z,101176.84
2023-04-04T05:30:15.743Z,101166.03
2023-04-04T05:35:34.637Z,101174.09
2023-04-04T05:40:40.915Z,101196.53
2023-04-04T05:45:50.559Z,101166.75
2023-04-04T05:50:57.809Z,101170.63
2023-04-04T05:56:17.333Z,101186.97
2023-04-04T06:01:23.812Z,101162.16
2023-04-04T06:06:34.338Z,101163.28
2023-04-04T06:11:41.225Z,101187.22
2023-04-04T06:16:50.231Z,101147.31
2023-04-04T06:21:57.572Z,101131.91
2023-04-04T06:27:04.018Z,101139.22
2023-04-04T06:32:12.552Z,101173.59
2023-04-04T06:37:27.593Z,101176.97
2023-04-04T06:42:43.017Z,101165.31
2023-04-04T06:47:48.762Z,101124.69
2023-04-04T06:52:54.782Z,101112.72
2023-04-04T06:58:00.400Z,101130.94
2023-04-04T07:03:05.837Z,101101.47
2023-04-04T07:08:12.633Z,101091.84
2023-04-04T07:13:18.325Z,101092.13
2023-04-04T07:18:23.756Z,101082.81
2023-04-04T07:23:29.225Z,101076.84
2023-04-04T07:28:34.780Z,101077.81
2023-04-04T07:33:40.118Z,101069.88
2023-04-04T07:38:46.423Z,101066.28
2023-04-04T07:43:56.001Z,101073.53
2023-04-04T07:49:02.580Z,101072.69
2023-04-04T07:54:08.536Z,101073.81
2023-04-04T07:59:14.015Z,101067.38
2023-04-04T08:04:20.014Z,101089.38
2023-04-04T08:09:26.220Z,101063.50
2023-04-04T08:14:32.815Z,101063.78
2023-04-04T08:19:38.855Z,101062.41
2023-04-04T08:24:44.417Z,101071.88
2023-04-04T08:29:49.827Z,101071.34
2023-04-04T08:34:54.510Z,101065.78
2023-04-04T08:39:59.807Z,101060.78
2023-04-04T08:45:06.501Z,101051.63
2023-04-04T08:50:12.093Z,101057.34
2023-04-04T08:55:17.563Z,101046.50
2023-04-04T09:00:24.155Z,101055.53
2023-04-04T09:05:29.775Z,101050.66
2023-04-04T09:10:37.434Z,101042.16
2023-04-04T09:15:46.215Z,101035.47
2023-04-04T09:20:52.809Z,101039.38
2023-04-04T09:26:03.988Z,101028.41
2023-04-04T09:31:11.546Z,101028.69
2023-04-04T09:36:18.337Z,101029.94
2023-04-04T09:41:23.746Z,101025.91
2023-04-04T09:46:29.464Z,101024.81
2023-04-04T09:51:38.396Z,101025.63
2023-04-04T09:56:46.029Z,101040.19
2023-04-04T10:01:53.337Z,101022.69
2023-04-04T10:07:00.918Z,101041.16
2023-04-04T10:12:14.800Z,101019.50
2023-04-04T10:17:20.944Z,101023.81
2023-04-04T10:22:26.709Z,101028.53
2023-04-04T10:27:33.094Z,101033.09
2023-04-04T10:33:07.577Z,101028.22
2023-04-04T10:38:14.568Z,101026.28
2023-04-04T10:43:27.883Z,101038.78
2023-04-04T10:48:33.992Z,101030.88
2023-04-04T10:53:44.144Z,101022.25
2023-04-04T10:58:52.105Z,101021.84
2023-04-04T11:04:22.862Z,101029.06
2023-04-04T11:09:56.674Z,101029.75
2023-04-04T11:15:05.121Z,101041.63
2023-04-04T11:20:11.876Z,101038.72
2023-04-04T11:25:36.210Z,101042.69
2023-04-04T11:30:46.030Z,101050.34
2023-04-04T11:35:52.606Z,101056.94
2023-04-04T11:40:57.576Z,101052.22
2023-04-04T11:46:10.263Z,101058.84
2023-04-04T11:51:16.368Z,101059.69
2023-04-04T11:56:22.172Z,101058.00
2023-04-04T12:01:27.545Z,101061.63
2023-04-04T12:06:39.825Z,101067.59
2023-04-04T12:11:48.574Z,101066.59
2023-04-04T12:16:58.874Z,101069.97
2023-04-04T12:22:07.701Z,101082.16
2023-04-04T12:27:13.208Z,101076.88
2023-04-04T12:32:18.786Z,101078.81
2023-04-04T12:37:23.960Z,101071.88
2023-04-04T12:42:29.898Z,101069.41
2023-04-04T12:47:36.307Z,101086.16
2023-04-04T12:52:42.440Z,101073.81
2023-04-04T12:57:48.375Z,101115.13
2023-04-04T13:02:53.755Z,101088.78
2023-04-04T13:08:14.113Z,101084.63
2023-04-04T13:13:34.257Z,101057.31
2023-04-04T13:18:44.870Z,101064.38
2023-04-04T13:23:51.144Z,101072.16
2023-04-04T13:28:56.516Z,101081.59
2023-04-04T13:34:01.948Z,101074.50
2023-04-04T13:39:07.651Z,101071.63
2023-04-04T13:44:16.717Z,101053.88
2023-04-04T13:49:22.842Z,101064.28
2023-04-04T13:54:29.390Z,101092.44
2023-04-04T13:59:36.561Z,101054.72
2023-04-04T14:04:46.274Z,101061.91
2023-04-04T14:09:54.373Z,101045.25
2023-04-04T14:15:00.660Z,101037.34
2023-04-04T14:20:08.321Z,101046.63
2023-04-04T14:25:14.513Z,101034.41
2023-04-04T14:30:20.720Z,101033.84
2023-04-04T14:35:30.618Z,101032.44
2023-04-04T14:40:36.375Z,101047.16
2023-04-04T14:45:43.144Z,101022.66
2023-04-04T14:50:50.766Z,101051.34
2023-04-04T14:55:56.594Z,101015.59
2023-04-04T15:01:02.982Z,101009.19
2023-04-04T15:06:09.042Z,101110.53
2023-04-04T15:11:15.398Z,101030.75
2023-04-04T15:16:21.062Z,100996.94
2023-04-04T15:21:29.361Z,100986.41
2023-04-04T15:26:35.643Z,100986.53
2023-04-04T15:31:41.221Z,101015.19
2023-04-04T15:36:47.073Z,100996.63
2023-04-04T15:41:52.945Z,100982.75
2023-04-04T15:46:58.448Z,100985.38
2023-04-04T15:52:06.013Z,100988.72
2023-04-04T15:57:13.280Z,100978.44
2023-04-04T16:02:19.272Z,100977.63
2023-04-04T16:07:24.892Z,100962.50
2023-04-04T16:12:30.699Z,100965.16
2023-04-04T16:17:37.812Z,100963.34
2023-04-04T16:22:43.591Z,100964.06
2023-04-04T16:27:49.978Z,100966.81
2023-04-04T16:32:55.952Z,100949.91
2023-04-04T16:38:02.103Z,100933.41
2023-04-04T16:43:08.332Z,100941.69
2023-04-04T16:48:13.927Z,100925.06
2023-04-04T16:53:19.485Z,100919.09
2023-04-04T16:58:26.152Z,100938.91
2023-04-04T17:03:32.399Z,100907.31
2023-04-04T17:08:37.825Z,100912.56
2023-04-04T17:13:43.602Z,100912.56
2023-04-04T17:18:49.843Z,100905.75
2023-04-04T17:23:55.361Z,100908.41
2023-04-04T17:29:00.940Z,100903.97
2023-04-04T17:34:06.897Z,100901.19
2023-04-04T17:39:13.111Z,100903.97
2023-04-04T17:44:20.409Z,100886.63
2023-04-04T17:49:25.961Z,100893.00
2023-04-04T17:54:31.988Z,100875.78
2023-04-04T17:59:38.589Z,100869.69
2023-04-04T18:04:44.472Z,100866.63
2023-04-04T18:09:50.224Z,100868.69
2023-04-04T18:14:55.652Z,100875.34
2023-04-04T18:20:02.093Z,100838.63
2023-04-04T18:25:09.528Z,100823.19
2023-04-04T18:30:15.044Z,100847.97
2023-04-04T18:35:21.030Z,100818.72
2023-04-04T18:40:28.449Z,100861.06
2023-04-04T18:45:40.440Z,100805.69
2023-04-04T18:50:46.961Z,100796.28
2023-04-04T18:55:56.298Z,100788.19
2023-04-04T19:01:04.800Z,100799.69
2023-04-04T19:06:12.468Z,100817.53
2023-04-04T19:11:19.458Z,100826.78
2023-04-04T19:16:26.115Z,100820.00
2023-04-04T19:21:32.855Z,100826.78
2023-04-04T19:26:39.412Z,100824.03
2023-04-04T19:31:45.078Z,100831.09
2023-04-04T19:36:51.351Z,100839.94
2023-04-04T19:41:57.964Z,100849.63
2023-04-04T19:47:03.209Z,100833.72
2023-04-04T19:52:10.468Z,100837.03
2023-04-04T19:57:23.922Z,100822.78
2023-04-04T20:02:35.589Z,100810.34
2023-04-04T20:07:40.991Z,100811.44
2023-04-04T20:12:47.084Z,100801.75
2023-04-04T20:17:52.623Z,100789.00
2023-04-04T20:22:57.868Z,100790.22
2023-04-04T20:28:03.396Z,100786.44
2023-04-04T20:33:31.410Z,100803.72
2023-04-04T20:38:38.893Z,100845.75
2023-04-04T20:43:51.774Z,100846.13
2023-04-04T20:49:00.208Z,100840.28
2023-04-04T20:54:05.709Z,100825.59
2023-04-04T20:59:47.022Z,100833.94
2023-04-04T21:04:53.114Z,100816.25
2023-04-04T21:09:58.991Z,100818.59
2023-04-04T21:15:07.878Z,100820.16
2023-04-04T21:20:38.586Z,100807.69
2023-04-04T21:25:46.757Z,100812.13
2023-04-04T21:30:52.147Z,100810.91
2023-04-04T21:35:58.103Z,100833.50
2023-04-04T21:41:11.651Z,100818.53
2023-04-04T21:46:17.102Z,100817.56
2023-04-04T21:51:23.136Z,100838.75
2023-04-04T21:56:32.451Z,100829.75
2023-04-04T22:01:39.200Z,100829.88
2023-04-04T22:06:44.620Z,100833.34
2023-04-04T22:11:50.366Z,100846.47
2023-04-04T22:17:01.141Z,100847.22
2023-04-04T22:22:06.777Z,100846.22
2023-04-04T22:27:15.959Z,100851.25
2023-04-04T22:32:21.260Z,100849.88
2023-04-04T22:37:28.672Z,100837.19
2023-04-04T22:42:34.143Z,100837.25
2023-04-04T22:47:39.997Z,100844.84
2023-04-04T22:52:45.463Z,100840.72
2023-04-04T22:57:51.129Z,100834.00
2023-04-04T23:02:56.826Z,100823.78
2023-04-04T23:08:04.918Z,100839.75
2023-04-04T23:13:10.239Z,100854.03
2023-04-04T23:18:15.535Z,100864.19
2023-04-04T23:23:20.906Z,100869.31
2023-04-04T23:28:27.071Z,100874.84
2023-04-04T23:33:32.476Z,100889.31
2023-04-04T23:38:38.086Z,100871.44
2023-04-04T23:43:44.521Z,100900.13
2023-04-04T23:48:49.970Z,100863.69
2023-04-04T23:53:55.295Z,100870.78
2023-04-04T23:59:01.187Z,100874.56
